sensor_id;sensor_type;location;lat;lon;timestamp;P1;durP1;ratioP1;P2;durP2;ratioP2
18853;SDS011;9556;49.374;19.446;2022-08-30T00:02:16;34.63;;;19.80;;
18853;SDS011;9556;49.374;19.446;2022-08-30T00:04:44;35.73;;;19.70;;
18853;SDS011;9556;49.374;19.446;2022-08-30T00:07:13;35.50;;;19.53;;
18853;SDS011;9556;49.374;19.446;2022-08-30T00:09:41;37.43;;;20.10;;
18853;SDS011;9556;49.374;19.446;2022-08-30T00:12:08;35.97;;;18.70;;
18853;SDS011;9556;49.374;19.446;2022-08-30T00:14:35;42.33;;;19.77;;
18853;SDS011;9556;49.374;19.446;2022-08-30T00:17:03;31.20;;;18.43;;
18853;SDS011;9556;49.374;19.446;2022-08-30T00:19:30;30.27;;;17.60;;
18853;SDS011;9556;49.374;19.446;2022-08-30T00:21:57;31.77;;;18.13;;
18853;SDS011;9556;49.374;19.446;2022-08-30T00:24:25;40.13;;;18.90;;
18853;SDS011;9556;49.374;19.446;2022-08-30T00:26:52;38.77;;;19.07;;
18853;SDS011;9556;49.374;19.446;2022-08-30T00:29:20;37.97;;;19.10;;
18853;SDS011;9556;49.374;19.446;2022-08-30T00:31:47;35.17;;;18.23;;
18853;SDS011;9556;49.374;19.446;2022-08-30T00:34:14;37.33;;;19.13;;
18853;SDS011;9556;49.374;19.446;2022-08-30T00:36:41;36.87;;;18.87;;
18853;SDS011;9556;49.374;19.446;2022-08-30T00:39:08;31.03;;;18.50;;
18853;SDS011;9556;49.374;19.446;2022-08-30T00:41:37;38.17;;;20.40;;
18853;SDS011;9556;49.374;19.446;2022-08-30T00:44:04;35.97;;;19.47;;
18853;SDS011;9556;49.374;19.446;2022-08-30T00:46:32;32.83;;;18.73;;
18853;SDS011;9556;49.374;19.446;2022-08-30T00:48:59;36.67;;;19.50;;
18853;SDS011;9556;49.374;19.446;2022-08-30T00:51:28;33.80;;;18.10;;
18853;SDS011;9556;49.374;19.446;2022-08-30T00:53:57;35.80;;;19.93;;
18853;SDS011;9556;49.374;19.446;2022-08-30T00:56:24;36.80;;;20.40;;
18853;SDS011;9556;49.374;19.446;2022-08-30T00:58:54;43.73;;;21.07;;
18853;SDS011;9556;49.374;19.446;2022-08-30T01:01:22;32.23;;;17.97;;
18853;SDS011;9556;49.374;19.446;2022-08-30T01:03:50;29.43;;;16.77;;
18853;SDS011;9556;49.374;19.446;2022-08-30T01:06:17;30.23;;;17.80;;
18853;SDS011;9556;49.374;19.446;2022-08-30T01:08:45;32.87;;;18.07;;
18853;SDS011;9556;49.374;19.446;2022-08-30T01:11:13;32.13;;;18.33;;
18853;SDS011;9556;49.374;19.446;2022-08-30T01:13:40;31.77;;;17.30;;
18853;SDS011;9556;49.374;19.446;2022-08-30T01:16:09;35.43;;;18.17;;
18853;SDS011;9556;49.374;19.446;2022-08-30T01:18:36;28.30;;;17.20;;
18853;SDS011;9556;49.374;19.446;2022-08-30T01:21:04;31.83;;;17.83;;
18853;SDS011;9556;49.374;19.446;2022-08-30T01:23:37;30.83;;;16.40;;
18853;SDS011;9556;49.374;19.446;2022-08-30T01:26:05;34.63;;;17.60;;
18853;SDS011;9556;49.374;19.446;2022-08-30T01:28:32;39.80;;;18.23;;
18853;SDS011;9556;49.374;19.446;2022-08-30T01:31:00;36.63;;;17.20;;
18853;SDS011;9556;49.374;19.446;2022-08-30T01:33:27;30.53;;;17.93;;
18853;SDS011;9556;49.374;19.446;2022-08-30T01:35:55;34.27;;;16.80;;
18853;SDS011;9556;49.374;19.446;2022-08-30T01:38:23;37.40;;;18.37;;
18853;SDS011;9556;49.374;19.446;2022-08-30T01:40:57;35.53;;;18.67;;
18853;SDS011;9556;49.374;19.446;2022-08-30T01:43:24;29.97;;;17.23;;
18853;SDS011;9556;49.374;19.446;2022-08-30T01:45:51;38.20;;;18.03;;
18853;SDS011;9556;49.374;19.446;2022-08-30T01:48:18;33.30;;;17.07;;
18853;SDS011;9556;49.374;19.446;2022-08-30T01:50:46;39.50;;;17.43;;
18853;SDS011;9556;49.374;19.446;2022-08-30T01:53:13;69.80;;;18.23;;
18853;SDS011;9556;49.374;19.446;2022-08-30T01:55:40;162.70;;;19.07;;
18853;SDS011;9556;49.374;19.446;2022-08-30T01:58:09;121.90;;;18.83;;
18853;SDS011;9556;49.374;19.446;2022-08-30T02:00:36;74.43;;;17.90;;
18853;SDS011;9556;49.374;19.446;2022-08-30T02:03:03;118.93;;;18.37;;
18853;SDS011;9556;49.374;19.446;2022-08-30T02:05:30;130.47;;;17.93;;
18853;SDS011;9556;49.374;19.446;2022-08-30T02:07:58;225.50;;;18.60;;
18853;SDS011;9556;49.374;19.446;2022-08-30T02:10:25;163.17;;;18.60;;
18853;SDS011;9556;49.374;19.446;2022-08-30T02:12:53;191.80;;;18.97;;
18853;SDS011;9556;49.374;19.446;2022-08-30T02:15:21;242.87;;;20.87;;
18853;SDS011;9556;49.374;19.446;2022-08-30T02:17:49;176.33;;;21.03;;
18853;SDS011;9556;49.374;19.446;2022-08-30T02:20:16;101.13;;;19.67;;
18853;SDS011;9556;49.374;19.446;2022-08-30T02:22:43;71.53;;;17.40;;
18853;SDS011;9556;49.374;19.446;2022-08-30T02:25:11;205.10;;;19.77;;
18853;SDS011;9556;49.374;19.446;2022-08-30T02:27:39;50.30;;;17.67;;
18853;SDS011;9556;49.374;19.446;2022-08-30T02:30:07;61.20;;;17.97;;
18853;SDS011;9556;49.374;19.446;2022-08-30T02:32:36;128.70;;;17.70;;
18853;SDS011;9556;49.374;19.446;2022-08-30T02:35:03;98.27;;;18.37;;
18853;SDS011;9556;49.374;19.446;2022-08-30T02:37:30;60.27;;;18.23;;
18853;SDS011;9556;49.374;19.446;2022-08-30T02:39:57;50.93;;;17.80;;
18853;SDS011;9556;49.374;19.446;2022-08-30T02:42:24;308.63;;;20.20;;
18853;SDS011;9556;49.374;19.446;2022-08-30T02:44:51;143.97;;;20.07;;
18853;SDS011;9556;49.374;19.446;2022-08-30T02:47:18;137.50;;;19.43;;
18853;SDS011;9556;49.374;19.446;2022-08-30T02:49:47;202.90;;;20.07;;
18853;SDS011;9556;49.374;19.446;2022-08-30T02:52:14;184.63;;;19.97;;
18853;SDS011;9556;49.374;19.446;2022-08-30T02:54:41;444.73;;;24.57;;
18853;SDS011;9556;49.374;19.446;2022-08-30T02:57:08;343.67;;;20.03;;
18853;SDS011;9556;49.374;19.446;2022-08-30T02:59:37;329.70;;;20.33;;
18853;SDS011;9556;49.374;19.446;2022-08-30T03:02:08;247.47;;;19.20;;
18853;SDS011;9556;49.374;19.446;2022-08-30T03:04:35;195.10;;;19.80;;
18853;SDS011;9556;49.374;19.446;2022-08-30T03:07:04;188.30;;;20.60;;
18853;SDS011;9556;49.374;19.446;2022-08-30T03:09:32;202.43;;;20.97;;
18853;SDS011;9556;49.374;19.446;2022-08-30T03:11:59;144.67;;;19.70;;
18853;SDS011;9556;49.374;19.446;2022-08-30T03:14:26;201.30;;;20.90;;
18853;SDS011;9556;49.374;19.446;2022-08-30T03:16:53;300.90;;;23.27;;
18853;SDS011;9556;49.374;19.446;2022-08-30T03:19:20;76.33;;;21.67;;
18853;SDS011;9556;49.374;19.446;2022-08-30T03:21:49;198.60;;;22.67;;
18853;SDS011;9556;49.374;19.446;2022-08-30T03:24:18;246.33;;;22.90;;
18853;SDS011;9556;49.374;19.446;2022-08-30T03:26:45;178.33;;;21.83;;
18853;SDS011;9556;49.374;19.446;2022-08-30T03:29:12;230.67;;;22.53;;
18853;SDS011;9556;49.374;19.446;2022-08-30T03:31:39;118.70;;;19.83;;
18853;SDS011;9556;49.374;19.446;2022-08-30T03:34:06;313.40;;;22.80;;
18853;SDS011;9556;49.374;19.446;2022-08-30T03:36:35;218.17;;;22.13;;
18853;SDS011;9556;49.374;19.446;2022-08-30T03:39:03;148.80;;;21.20;;
18853;SDS011;9556;49.374;19.446;2022-08-30T03:41:31;168.80;;;22.30;;
18853;SDS011;9556;49.374;19.446;2022-08-30T03:43:58;188.07;;;23.17;;
18853;SDS011;9556;49.374;19.446;2022-08-30T03:46:26;123.53;;;21.83;;
18853;SDS011;9556;49.374;19.446;2022-08-30T03:48:53;150.83;;;22.27;;
18853;SDS011;9556;49.374;19.446;2022-08-30T03:51:21;235.57;;;22.37;;
18853;SDS011;9556;49.374;19.446;2022-08-30T03:53:48;99.43;;;21.93;;
18853;SDS011;9556;49.374;19.446;2022-08-30T03:56:15;206.20;;;21.80;;
18853;SDS011;9556;49.374;19.446;2022-08-30T03:58:44;227.17;;;21.87;;
18853;SDS011;9556;49.374;19.446;2022-08-30T04:01:11;296.93;;;20.67;;
18853;SDS011;9556;49.374;19.446;2022-08-30T04:03:38;205.23;;;21.80;;
18853;SDS011;9556;49.374;19.446;2022-08-30T04:06:05;252.00;;;20.27;;
18853;SDS011;9556;49.374;19.446;2022-08-30T04:08:32;152.23;;;17.80;;
18853;SDS011;9556;49.374;19.446;2022-08-30T04:10:59;111.80;;;16.83;;
18853;SDS011;9556;49.374;19.446;2022-08-30T04:13:28;54.70;;;17.57;;
18853;SDS011;9556;49.374;19.446;2022-08-30T04:15:56;93.30;;;17.17;;
18853;SDS011;9556;49.374;19.446;2022-08-30T04:18:23;66.77;;;16.47;;
18853;SDS011;9556;49.374;19.446;2022-08-30T04:20:51;119.40;;;18.37;;
18853;SDS011;9556;49.374;19.446;2022-08-30T04:23:18;104.17;;;17.80;;
18853;SDS011;9556;49.374;19.446;2022-08-30T04:25:46;309.13;;;19.27;;
18853;SDS011;9556;49.374;19.446;2022-08-30T04:28:13;235.90;;;18.30;;
18853;SDS011;9556;49.374;19.446;2022-08-30T04:30:40;123.43;;;16.73;;
18853;SDS011;9556;49.374;19.446;2022-08-30T04:33:09;179.43;;;16.83;;
18853;SDS011;9556;49.374;19.446;2022-08-30T04:35:39;210.93;;;16.50;;
18853;SDS011;9556;49.374;19.446;2022-08-30T04:38:06;165.73;;;17.40;;
18853;SDS011;9556;49.374;19.446;2022-08-30T04:40:33;95.53;;;16.47;;
18853;SDS011;9556;49.374;19.446;2022-08-30T04:43:00;143.83;;;16.00;;
18853;SDS011;9556;49.374;19.446;2022-08-30T04:45:28;162.00;;;15.30;;
18853;SDS011;9556;49.374;19.446;2022-08-30T04:47:55;93.53;;;14.30;;
18853;SDS011;9556;49.374;19.446;2022-08-30T04:50:23;26.93;;;13.47;;
18853;SDS011;9556;49.374;19.446;2022-08-30T04:52:51;23.90;;;12.77;;
18853;SDS011;9556;49.374;19.446;2022-08-30T04:55:18;48.50;;;12.43;;
18853;SDS011;9556;49.374;19.446;2022-08-30T04:57:45;24.17;;;12.83;;
18853;SDS011;9556;49.374;19.446;2022-08-30T05:00:13;41.57;;;13.40;;
18853;SDS011;9556;49.374;19.446;2022-08-30T05:02:40;37.57;;;12.37;;
18853;SDS011;9556;49.374;19.446;2022-08-30T05:05:08;66.93;;;14.37;;
18853;SDS011;9556;49.374;19.446;2022-08-30T05:07:54;144.03;;;16.40;;
18853;SDS011;9556;49.374;19.446;2022-08-30T05:10:21;95.07;;;13.83;;
18853;SDS011;9556;49.374;19.446;2022-08-30T05:12:50;108.53;;;14.00;;
18853;SDS011;9556;49.374;19.446;2022-08-30T05:15:17;72.57;;;13.87;;
18853;SDS011;9556;49.374;19.446;2022-08-30T05:17:45;29.30;;;14.37;;
18853;SDS011;9556;49.374;19.446;2022-08-30T05:20:12;28.70;;;14.30;;
18853;SDS011;9556;49.374;19.446;2022-08-30T05:22:40;30.20;;;14.70;;
18853;SDS011;9556;49.374;19.446;2022-08-30T05:25:15;141.93;;;13.47;;
18853;SDS011;9556;49.374;19.446;2022-08-30T05:27:42;209.63;;;15.70;;
18853;SDS011;9556;49.374;19.446;2022-08-30T05:30:10;141.17;;;15.03;;
18853;SDS011;9556;49.374;19.446;2022-08-30T05:32:37;222.53;;;13.43;;
18853;SDS011;9556;49.374;19.446;2022-08-30T05:35:04;166.73;;;12.43;;
18853;SDS011;9556;49.374;19.446;2022-08-30T05:37:31;78.33;;;12.50;;
18853;SDS011;9556;49.374;19.446;2022-08-30T05:39:59;221.10;;;13.37;;
18853;SDS011;9556;49.374;19.446;2022-08-30T05:42:27;255.53;;;14.63;;
18853;SDS011;9556;49.374;19.446;2022-08-30T05:44:55;144.03;;;13.57;;
18853;SDS011;9556;49.374;19.446;2022-08-30T05:47:22;78.03;;;12.23;;
18853;SDS011;9556;49.374;19.446;2022-08-30T05:49:49;81.73;;;13.00;;
18853;SDS011;9556;49.374;19.446;2022-08-30T05:52:16;101.80;;;14.37;;
18853;SDS011;9556;49.374;19.446;2022-08-30T05:54:43;46.47;;;13.07;;
18853;SDS011;9556;49.374;19.446;2022-08-30T05:57:11;42.47;;;13.97;;
18853;SDS011;9556;49.374;19.446;2022-08-30T05:59:39;59.93;;;13.67;;
18853;SDS011;9556;49.374;19.446;2022-08-30T06:02:07;55.37;;;13.40;;
18853;SDS011;9556;49.374;19.446;2022-08-30T06:04:34;24.20;;;13.50;;
18853;SDS011;9556;49.374;19.446;2022-08-30T06:07:01;48.13;;;13.83;;
18853;SDS011;9556;49.374;19.446;2022-08-30T06:09:29;33.73;;;13.60;;
18853;SDS011;9556;49.374;19.446;2022-08-30T06:11:56;44.93;;;13.77;;
18853;SDS011;9556;49.374;19.446;2022-08-30T06:14:23;23.67;;;13.83;;
18853;SDS011;9556;49.374;19.446;2022-08-30T06:16:52;30.37;;;14.30;;
18853;SDS011;9556;49.374;19.446;2022-08-30T06:19:19;23.43;;;13.47;;
18853;SDS011;9556;49.374;19.446;2022-08-30T06:21:47;24.97;;;14.07;;
18853;SDS011;9556;49.374;19.446;2022-08-30T06:24:14;23.83;;;12.77;;
18853;SDS011;9556;49.374;19.446;2022-08-30T06:26:42;21.37;;;13.27;;
18853;SDS011;9556;49.374;19.446;2022-08-30T06:29:10;26.17;;;14.67;;
18853;SDS011;9556;49.374;19.446;2022-08-30T06:31:38;30.20;;;15.83;;
18853;SDS011;9556;49.374;19.446;2022-08-30T06:34:06;25.63;;;15.97;;
18853;SDS011;9556;49.374;19.446;2022-08-30T06:36:33;22.93;;;14.63;;
18853;SDS011;9556;49.374;19.446;2022-08-30T06:39:01;25.43;;;14.17;;
18853;SDS011;9556;49.374;19.446;2022-08-30T06:41:29;24.53;;;14.50;;
18853;SDS011;9556;49.374;19.446;2022-08-30T06:43:57;23.17;;;13.63;;
18853;SDS011;9556;49.374;19.446;2022-08-30T06:46:25;25.03;;;14.13;;
18853;SDS011;9556;49.374;19.446;2022-08-30T06:48:54;24.63;;;14.77;;
18853;SDS011;9556;49.374;19.446;2022-08-30T06:51:23;27.33;;;14.33;;
18853;SDS011;9556;49.374;19.446;2022-08-30T06:53:50;24.23;;;13.63;;
18853;SDS011;9556;49.374;19.446;2022-08-30T06:56:18;22.90;;;13.27;;
18853;SDS011;9556;49.374;19.446;2022-08-30T06:58:45;20.97;;;13.07;;
18853;SDS011;9556;49.374;19.446;2022-08-30T07:01:13;26.50;;;13.70;;
18853;SDS011;9556;49.374;19.446;2022-08-30T07:03:41;23.93;;;13.33;;
18853;SDS011;9556;49.374;19.446;2022-08-30T07:06:08;21.07;;;13.00;;
18853;SDS011;9556;49.374;19.446;2022-08-30T07:08:37;23.73;;;12.30;;
18853;SDS011;9556;49.374;19.446;2022-08-30T07:11:04;22.73;;;12.80;;
18853;SDS011;9556;49.374;19.446;2022-08-30T07:13:32;17.83;;;12.23;;
18853;SDS011;9556;49.374;19.446;2022-08-30T07:15:59;19.20;;;10.73;;
18853;SDS011;9556;49.374;19.446;2022-08-30T07:18:26;21.37;;;10.40;;
18853;SDS011;9556;49.374;19.446;2022-08-30T07:21:12;16.83;;;10.30;;
18853;SDS011;9556;49.374;19.446;2022-08-30T07:23:41;16.93;;;9.80;;
18853;SDS011;9556;49.374;19.446;2022-08-30T07:26:10;17.33;;;10.70;;
18853;SDS011;9556;49.374;19.446;2022-08-30T07:28:37;20.63;;;10.17;;
18853;SDS011;9556;49.374;19.446;2022-08-30T07:31:04;22.33;;;9.87;;
18853;SDS011;9556;49.374;19.446;2022-08-30T07:33:32;18.93;;;10.90;;
18853;SDS011;9556;49.374;19.446;2022-08-30T07:36:00;18.00;;;10.30;;
18853;SDS011;9556;49.374;19.446;2022-08-30T07:38:29;17.23;;;10.30;;
18853;SDS011;9556;49.374;19.446;2022-08-30T07:40:58;24.10;;;11.27;;
18853;SDS011;9556;49.374;19.446;2022-08-30T07:43:25;20.17;;;10.17;;
18853;SDS011;9556;49.374;19.446;2022-08-30T07:45:52;18.97;;;9.70;;
18853;SDS011;9556;49.374;19.446;2022-08-30T07:48:19;16.67;;;9.23;;
18853;SDS011;9556;49.374;19.446;2022-08-30T07:50:47;20.87;;;9.80;;
18853;SDS011;9556;49.374;19.446;2022-08-30T07:53:14;14.87;;;9.20;;
18853;SDS011;9556;49.374;19.446;2022-08-30T07:55:41;15.70;;;8.80;;
18853;SDS011;9556;49.374;19.446;2022-08-30T07:58:09;20.17;;;8.30;;
18853;SDS011;9556;49.374;19.446;2022-08-30T08:00:36;15.00;;;7.47;;
18853;SDS011;9556;49.374;19.446;2022-08-30T08:03:04;15.30;;;7.37;;
18853;SDS011;9556;49.374;19.446;2022-08-30T08:05:35;13.37;;;5.63;;
18853;SDS011;9556;49.374;19.446;2022-08-30T08:08:02;36.00;;;7.00;;
18853;SDS011;9556;49.374;19.446;2022-08-30T08:10:29;15.07;;;5.33;;
18853;SDS011;9556;49.374;19.446;2022-08-30T08:12:56;13.13;;;5.57;;
18853;SDS011;9556;49.374;19.446;2022-08-30T08:15:25;18.17;;;5.30;;
18853;SDS011;9556;49.374;19.446;2022-08-30T08:17:52;12.83;;;4.97;;
18853;SDS011;9556;49.374;19.446;2022-08-30T08:20:20;12.47;;;4.93;;
18853;SDS011;9556;49.374;19.446;2022-08-30T08:22:47;12.77;;;4.80;;
18853;SDS011;9556;49.374;19.446;2022-08-30T08:25:14;11.93;;;5.07;;
18853;SDS011;9556;49.374;19.446;2022-08-30T08:27:41;14.60;;;4.73;;
18853;SDS011;9556;49.374;19.446;2022-08-30T08:30:09;15.73;;;4.97;;
18853;SDS011;9556;49.374;19.446;2022-08-30T08:32:38;11.93;;;4.40;;
18853;SDS011;9556;49.374;19.446;2022-08-30T08:35:05;15.13;;;4.73;;
18853;SDS011;9556;49.374;19.446;2022-08-30T08:37:32;12.17;;;4.63;;
18853;SDS011;9556;49.374;19.446;2022-08-30T08:39:59;12.57;;;4.33;;
18853;SDS011;9556;49.374;19.446;2022-08-30T08:42:30;15.10;;;4.30;;
18853;SDS011;9556;49.374;19.446;2022-08-30T08:45:03;16.13;;;5.40;;
18853;SDS011;9556;49.374;19.446;2022-08-30T08:47:32;9.23;;;3.93;;
18853;SDS011;9556;49.374;19.446;2022-08-30T08:50:06;10.47;;;4.60;;
18853;SDS011;9556;49.374;19.446;2022-08-30T08:52:35;9.97;;;3.97;;
18853;SDS011;9556;49.374;19.446;2022-08-30T08:55:23;12.40;;;4.27;;
18853;SDS011;9556;49.374;19.446;2022-08-30T08:57:50;14.63;;;4.50;;
18853;SDS011;9556;49.374;19.446;2022-08-30T09:00:17;10.97;;;4.13;;
18853;SDS011;9556;49.374;19.446;2022-08-30T09:02:45;10.40;;;3.70;;
18853;SDS011;9556;49.374;19.446;2022-08-30T09:05:16;8.57;;;3.50;;
18853;SDS011;9556;49.374;19.446;2022-08-30T09:07:45;10.30;;;3.60;;
18853;SDS011;9556;49.374;19.446;2022-08-30T09:10:13;24.30;;;3.77;;
18853;SDS011;9556;49.374;19.446;2022-08-30T09:12:40;10.97;;;3.50;;
18853;SDS011;9556;49.374;19.446;2022-08-30T09:15:09;11.77;;;4.50;;
18853;SDS011;9556;49.374;19.446;2022-08-30T09:17:47;14.73;;;3.90;;
18853;SDS011;9556;49.374;19.446;2022-08-30T09:20:22;9.00;;;3.43;;
18853;SDS011;9556;49.374;19.446;2022-08-30T09:22:50;13.90;;;3.40;;
18853;SDS011;9556;49.374;19.446;2022-08-30T09:25:18;10.13;;;3.37;;
18853;SDS011;9556;49.374;19.446;2022-08-30T09:27:46;11.47;;;3.40;;
18853;SDS011;9556;49.374;19.446;2022-08-30T09:30:15;9.53;;;3.53;;
18853;SDS011;9556;49.374;19.446;2022-08-30T09:32:43;7.53;;;3.17;;
18853;SDS011;9556;49.374;19.446;2022-08-30T09:35:16;13.00;;;4.33;;
18853;SDS011;9556;49.374;19.446;2022-08-30T09:37:46;10.73;;;3.33;;
18853;SDS011;9556;49.374;19.446;2022-08-30T09:40:20;8.87;;;3.47;;
18853;SDS011;9556;49.374;19.446;2022-08-30T09:43:01;10.23;;;3.57;;
18853;SDS011;9556;49.374;19.446;2022-08-30T09:45:31;9.43;;;3.50;;
18853;SDS011;9556;49.374;19.446;2022-08-30T09:48:00;6.93;;;3.30;;
18853;SDS011;9556;49.374;19.446;2022-08-30T09:50:28;8.77;;;3.30;;
18853;SDS011;9556;49.374;19.446;2022-08-30T09:52:58;7.93;;;3.53;;
18853;SDS011;9556;49.374;19.446;2022-08-30T09:55:31;9.83;;;3.47;;
18853;SDS011;9556;49.374;19.446;2022-08-30T09:58:03;7.40;;;3.37;;
18853;SDS011;9556;49.374;19.446;2022-08-30T10:00:34;7.30;;;3.27;;
18853;SDS011;9556;49.374;19.446;2022-08-30T10:03:13;4.80;;;2.77;;
18853;SDS011;9556;49.374;19.446;2022-08-30T10:05:47;8.17;;;3.57;;
18853;SDS011;9556;49.374;19.446;2022-08-30T10:08:17;6.23;;;3.03;;
18853;SDS011;9556;49.374;19.446;2022-08-30T10:10:48;8.77;;;3.57;;
18853;SDS011;9556;49.374;19.446;2022-08-30T10:13:22;6.85;;;3.15;;
18853;SDS011;9556;49.374;19.446;2022-08-30T10:15:54;6.93;;;3.07;;
18853;SDS011;9556;49.374;19.446;2022-08-30T10:18:24;7.83;;;3.17;;
18853;SDS011;9556;49.374;19.446;2022-08-30T10:20:53;8.90;;;3.53;;
18853;SDS011;9556;49.374;19.446;2022-08-30T10:23:24;8.02;;;3.38;;
18853;SDS011;9556;49.374;19.446;2022-08-30T10:25:54;9.25;;;2.90;;
18853;SDS011;9556;49.374;19.446;2022-08-30T10:28:25;5.80;;;2.83;;
18853;SDS011;9556;49.374;19.446;2022-08-30T10:30:54;6.47;;;2.92;;
18853;SDS011;9556;49.374;19.446;2022-08-30T10:33:24;9.35;;;3.13;;
18853;SDS011;9556;49.374;19.446;2022-08-30T10:35:52;7.10;;;3.38;;
18853;SDS011;9556;49.374;19.446;2022-08-30T10:38:22;5.20;;;3.05;;
18853;SDS011;9556;49.374;19.446;2022-08-30T10:40:54;9.98;;;3.28;;
18853;SDS011;9556;49.374;19.446;2022-08-30T10:43:40;5.88;;;3.10;;
18853;SDS011;9556;49.374;19.446;2022-08-30T10:46:10;6.95;;;3.40;;
18853;SDS011;9556;49.374;19.446;2022-08-30T10:48:41;6.38;;;2.85;;
18853;SDS011;9556;49.374;19.446;2022-08-30T10:51:09;7.50;;;3.20;;
18853;SDS011;9556;49.374;19.446;2022-08-30T10:53:39;6.88;;;3.05;;
18853;SDS011;9556;49.374;19.446;2022-08-30T10:56:10;10.45;;;3.17;;
18853;SDS011;9556;49.374;19.446;2022-08-30T10:58:38;7.72;;;3.00;;
18853;SDS011;9556;49.374;19.446;2022-08-30T11:01:11;5.25;;;3.00;;
18853;SDS011;9556;49.374;19.446;2022-08-30T11:06:29;5.32;;;3.15;;
18853;SDS011;9556;49.374;19.446;2022-08-30T11:09:13;7.30;;;3.40;;
18853;SDS011;9556;49.374;19.446;2022-08-30T11:11:49;8.13;;;3.13;;
18853;SDS011;9556;49.374;19.446;2022-08-30T11:14:20;10.95;;;3.10;;
18853;SDS011;9556;49.374;19.446;2022-08-30T11:16:48;7.80;;;3.10;;
18853;SDS011;9556;49.374;19.446;2022-08-30T11:19:18;8.30;;;3.05;;
18853;SDS011;9556;49.374;19.446;2022-08-30T11:21:45;6.70;;;3.20;;
18853;SDS011;9556;49.374;19.446;2022-08-30T11:24:13;9.55;;;3.70;;
18853;SDS011;9556;49.374;19.446;2022-08-30T11:26:53;5.93;;;3.20;;
18853;SDS011;9556;49.374;19.446;2022-08-30T11:29:32;18.13;;;4.20;;
18853;SDS011;9556;49.374;19.446;2022-08-30T11:34:53;10.00;;;4.07;;
18853;SDS011;9556;49.374;19.446;2022-08-30T11:37:31;6.05;;;3.08;;
18853;SDS011;9556;49.374;19.446;2022-08-30T11:40:00;5.18;;;3.05;;
18853;SDS011;9556;49.374;19.446;2022-08-30T11:42:34;10.18;;;2.88;;
18853;SDS011;9556;49.374;19.446;2022-08-30T11:47:47;6.75;;;3.00;;
18853;SDS011;9556;49.374;19.446;2022-08-30T11:50:15;6.38;;;2.90;;
18853;SDS011;9556;49.374;19.446;2022-08-30T11:52:48;10.20;;;3.20;;
18853;SDS011;9556;49.374;19.446;2022-08-30T11:58:07;6.97;;;2.90;;
18853;SDS011;9556;49.374;19.446;2022-08-30T12:00:36;4.47;;;2.72;;
18853;SDS011;9556;49.374;19.446;2022-08-30T12:03:04;6.15;;;2.90;;
18853;SDS011;9556;49.374;19.446;2022-08-30T12:05:45;4.22;;;2.50;;
18853;SDS011;9556;49.374;19.446;2022-08-30T12:10:58;5.55;;;3.00;;
18853;SDS011;9556;49.374;19.446;2022-08-30T12:16:08;4.63;;;2.65;;
18853;SDS011;9556;49.374;19.446;2022-08-30T12:18:40;6.40;;;2.97;;
18853;SDS011;9556;49.374;19.446;2022-08-30T12:23:50;6.07;;;3.00;;
18853;SDS011;9556;49.374;19.446;2022-08-30T12:26:26;4.85;;;2.97;;
18853;SDS011;9556;49.374;19.446;2022-08-30T12:29:05;4.05;;;2.80;;
18853;SDS011;9556;49.374;19.446;2022-08-30T12:31:37;6.57;;;3.10;;
18853;SDS011;9556;49.374;19.446;2022-08-30T12:34:05;6.57;;;3.00;;
18853;SDS011;9556;49.374;19.446;2022-08-30T12:36:34;5.47;;;2.70;;
18853;SDS011;9556;49.374;19.446;2022-08-30T12:39:14;6.68;;;3.17;;
18853;SDS011;9556;49.374;19.446;2022-08-30T12:41:41;8.43;;;2.65;;
18853;SDS011;9556;49.374;19.446;2022-08-30T12:44:11;6.47;;;2.72;;
18853;SDS011;9556;49.374;19.446;2022-08-30T12:46:40;6.57;;;2.80;;
18853;SDS011;9556;49.374;19.446;2022-08-30T12:49:08;4.60;;;2.40;;
18853;SDS011;9556;49.374;19.446;2022-08-30T12:51:36;11.73;;;2.78;;
18853;SDS011;9556;49.374;19.446;2022-08-30T12:54:05;5.03;;;2.70;;
18853;SDS011;9556;49.374;19.446;2022-08-30T12:56:47;8.43;;;2.47;;
18853;SDS011;9556;49.374;19.446;2022-08-30T13:02:05;4.18;;;2.17;;
18853;SDS011;9556;49.374;19.446;2022-08-30T13:04:33;8.63;;;2.33;;
18853;SDS011;9556;49.374;19.446;2022-08-30T13:07:01;5.80;;;2.10;;
18853;SDS011;9556;49.374;19.446;2022-08-30T13:09:29;6.63;;;2.15;;
18853;SDS011;9556;49.374;19.446;2022-08-30T13:11:58;4.63;;;1.95;;
18853;SDS011;9556;49.374;19.446;2022-08-30T13:14:29;5.38;;;2.08;;
18853;SDS011;9556;49.374;19.446;2022-08-30T13:17:06;4.32;;;2.15;;
18853;SDS011;9556;49.374;19.446;2022-08-30T13:19:34;5.55;;;2.00;;
18853;SDS011;9556;49.374;19.446;2022-08-30T13:22:02;4.97;;;2.17;;
18853;SDS011;9556;49.374;19.446;2022-08-30T13:24:29;4.40;;;1.90;;
18853;SDS011;9556;49.374;19.446;2022-08-30T13:26:57;4.65;;;2.10;;
18853;SDS011;9556;49.374;19.446;2022-08-30T13:29:25;4.10;;;2.10;;
18853;SDS011;9556;49.374;19.446;2022-08-30T13:31:53;6.00;;;1.90;;
18853;SDS011;9556;49.374;19.446;2022-08-30T13:34:21;4.45;;;2.00;;
18853;SDS011;9556;49.374;19.446;2022-08-30T13:36:49;6.35;;;2.00;;
18853;SDS011;9556;49.374;19.446;2022-08-30T13:39:16;2.40;;;1.77;;
18853;SDS011;9556;49.374;19.446;2022-08-30T13:41:43;4.20;;;2.20;;
18853;SDS011;9556;49.374;19.446;2022-08-30T13:44:10;3.35;;;1.92;;
18853;SDS011;9556;49.374;19.446;2022-08-30T13:46:38;10.63;;;2.40;;
18853;SDS011;9556;49.374;19.446;2022-08-30T13:49:06;4.55;;;2.20;;
18853;SDS011;9556;49.374;19.446;2022-08-30T13:51:35;5.57;;;2.30;;
18853;SDS011;9556;49.374;19.446;2022-08-30T13:54:02;3.33;;;2.00;;
18853;SDS011;9556;49.374;19.446;2022-08-30T13:56:30;6.47;;;2.55;;
18853;SDS011;9556;49.374;19.446;2022-08-30T13:58:57;4.97;;;2.47;;
18853;SDS011;9556;49.374;19.446;2022-08-30T14:01:24;7.30;;;2.60;;
18853;SDS011;9556;49.374;19.446;2022-08-30T14:03:51;8.20;;;2.55;;
18853;SDS011;9556;49.374;19.446;2022-08-30T14:06:19;6.57;;;2.22;;
18853;SDS011;9556;49.374;19.446;2022-08-30T14:08:47;3.90;;;2.15;;
18853;SDS011;9556;49.374;19.446;2022-08-30T14:11:15;3.00;;;2.03;;
18853;SDS011;9556;49.374;19.446;2022-08-30T14:13:43;6.57;;;1.98;;
18853;SDS011;9556;49.374;19.446;2022-08-30T14:16:11;7.40;;;2.17;;
18853;SDS011;9556;49.374;19.446;2022-08-30T14:18:38;4.18;;;2.10;;
18853;SDS011;9556;49.374;19.446;2022-08-30T14:21:05;4.50;;;1.90;;
18853;SDS011;9556;49.374;19.446;2022-08-30T14:23:32;16.17;;;2.45;;
18853;SDS011;9556;49.374;19.446;2022-08-30T14:26:01;11.82;;;2.78;;
18853;SDS011;9556;49.374;19.446;2022-08-30T14:28:29;5.10;;;2.53;;
18853;SDS011;9556;49.374;19.446;2022-08-30T14:30:56;8.30;;;2.70;;
18853;SDS011;9556;49.374;19.446;2022-08-30T14:33:23;6.32;;;2.65;;
18853;SDS011;9556;49.374;19.446;2022-08-30T14:35:50;6.55;;;2.60;;
18853;SDS011;9556;49.374;19.446;2022-08-30T14:38:17;7.93;;;2.70;;
18853;SDS011;9556;49.374;19.446;2022-08-30T14:40:44;13.20;;;3.15;;
18853;SDS011;9556;49.374;19.446;2022-08-30T14:43:13;11.38;;;3.53;;
18853;SDS011;9556;49.374;19.446;2022-08-30T14:45:40;7.32;;;2.92;;
18853;SDS011;9556;49.374;19.446;2022-08-30T14:48:07;6.22;;;2.85;;
18853;SDS011;9556;49.374;19.446;2022-08-30T14:50:34;5.55;;;2.80;;
18853;SDS011;9556;49.374;19.446;2022-08-30T14:53:02;4.03;;;2.05;;
18853;SDS011;9556;49.374;19.446;2022-08-30T14:55:30;3.75;;;2.30;;
18853;SDS011;9556;49.374;19.446;2022-08-30T14:57:58;6.43;;;2.40;;
18853;SDS011;9556;49.374;19.446;2022-08-30T15:00:26;4.63;;;2.35;;